New Orleans, LA (70154)

4:53 AM CDT on September 15, 2014 (GMT -0500)
Freret St above Brottworks | Change Station
CLOSE
Current Station
Personal Weather Station
Location: New Orleans, LA
Elevation: 48 ft
Nearby Weather Stations

Elev 48 ft 29.93 °N, 90.11 °W | Updated 8 seconds ago

Clear
Clear
80.9 °F
Feels Like 88 °F
N
4.0
Wind Variable Wind from SSE
Gusts 8.0 mph

Today
High -- | Low -- °F
--% Chance of Precip.
Yesterday
High -- | Low -- °F
Precip. -- in
6:45 AM 7:05 PM
Waning Gibbous, 57% visible
Pressure 30.05 in
Visibility -9999.0 miles
Clouds Few 2500 ft
Few 4200 ft
Heat Index 88 °F
Dew Point 78 °F
Humidity 91%
Rainfall 0.00 in
Snow Depth Not available.
UV 0 out of 12
Pollen 9.40 out of 12
PM2.5 Good
Flu Activity Not available.
METAR KNBG 150855Z AUTO 00000KT FEW025 FEW042 24/22 A3005 RMK AO2 SLP174 T02440222 58006 $

More Conditions Fewer Conditions

Pressure 30.05 in
Visibility -9999.0 miles
Clouds Few 2500 ft
Few 4200 ft
Heat Index 88 °F
Dew Point 78 °F
Humidity 91%
Rainfall 0.00 in
Snow Depth Not available.
UV 0 out of 12
Pollen 9.40 out of 12
PM2.5 Good
Flu Activity Not available.
METAR KNBG 150855Z AUTO 00000KT FEW025 FEW042 24/22 A3005 RMK AO2 SLP174 T02440222 58006 $

More Conditions Fewer Conditions

10-Day Weather Forecast

Almanac

Astronomy

Sep. 15, 2014 Rise Set
Actual Time 6:45 AM CDT 7:05 PM CDT
Civil Twilight 6:21 AM CDT 7:29 PM CDT
Nautical Twilight 5:53 AM CDT 7:57 PM CDT
Astronomical Twilight 5:24 AM CDT 8:25 PM CDT
Moon No Moon Rise 1:19 PM CDT
Length of Visible Light 13h 08m
Length of Day
12h 20m
Tomorrow will be 1m 47s shorter.
Waning Gibbous, 57% of the Moon is Illuminated
Today
Waning Gibbous
Sep 15
Last Quarter
Sep 24
New
Oct 1
First Quarter
Oct 8
Full

Today's Extremes

State Highs State Lows

Community

WunderPhotos

Upload Photos

1,753,427 photos uploaded!

Nearby

Air Quality

  Air Quality AQ Index Pollutant
Yesterday Good
PM2.5
Yesterday Good
OZONE
Current Good
PM2.5
Monday Moderate
PM2.5
Monday Good
OZONE
Tuesday Moderate
PM2.5
Tuesday Good
OZONE

Snow Depth

Station Depth Elevation
No new snow has been reported.

Earthquake Activity

City Distance Mag. Time & Date
No recent earthquake activity has been reported nearby.
Minimum magnitude displayed is 2.5.

Coastal Water Temperatures

Place Temperature
New Canal, LA 82.0 °F
Shell Beach, LA 80.1 °F
Bayou Gauche, LA 84.0 °F

Nearby Weather Stations